Time;durP1;ratioP1;P1;durP2;ratioP2;P2;SDS_P1;SDS_P2;PMS_P1;PMS_P2;Temp;Humidity;BMP_temperature;BMP_pressure;BME280_temperature;BME280_humidity;BME280_pressure;Samples;Min_cycle;Max_cycle;Signal;HPM_P1;HPM_P2
2022/06/05 00:01:10;;;;;;;26.07;14.20;;;;;;;;;;5050392;28;20082;-60
2022/06/05 00:03:52;;;;;;;24.20;12.90;;;;;;;;;;5050445;28;20057;-61
2022/06/05 00:06:30;;;;;;;22.53;13.07;;;;;;;;;;5050407;28;20056;-61
2022/06/05 00:09:02;;;;;;;24.27;12.47;;;;;;;;;;5050399;28;20056;-61
2022/06/05 00:11:31;;;;;;;23.30;13.60;;;;;;;;;;5061133;28;20068;-61
2022/06/05 00:13:57;;;;;;;21.20;13.50;;;;;;;;;;5070242;28;20514;-61
2022/06/05 00:16:25;;;;;;;24.13;14.07;;;;;;;;;;5069218;28;20049;-61
2022/06/05 00:18:52;;;;;;;24.03;14.13;;;;;;;;;;5065532;28;20044;-61
2022/06/05 00:21:18;;;;;;;21.00;13.57;;;;;;;;;;5051577;28;20125;-61
2022/06/05 00:23:44;;;;;;;26.17;14.23;;;;;;;;;;5050139;28;20052;-61
2022/06/05 00:26:19;;;;;;;25.43;13.83;;;;;;;;;;5048732;28;20135;-61
2022/06/05 00:28:51;;;;;;;24.27;15.10;;;;;;;;;;5050025;28;20060;-61
2022/06/05 00:31:30;;;;;;;31.53;16.40;;;;;;;;;;5069819;28;20406;-60
2022/06/05 00:33:57;;;;;;;22.70;14.40;;;;;;;;;;5069289;28;20456;-60
2022/06/05 00:36:23;;;;;;;22.53;14.63;;;;;;;;;;5056419;28;20040;-60
2022/06/05 00:38:55;;;;;;;27.33;16.00;;;;;;;;;;5050063;28;20431;-61
2022/06/05 00:41:40;;;;;;;24.73;15.70;;;;;;;;;;5050218;28;20059;-61
2022/06/05 00:44:06;;;;;;;25.77;15.47;;;;;;;;;;5051345;28;20048;-60
2022/06/05 00:46:33;;;;;;;28.10;16.13;;;;;;;;;;5069124;28;20048;-61
2022/06/05 00:48:59;;;;;;;22.60;14.30;;;;;;;;;;5070253;28;20041;-61
2022/06/05 00:51:25;;;;;;;26.17;16.37;;;;;;;;;;5068170;28;20048;-60
2022/06/05 00:53:51;;;;;;;24.10;15.17;;;;;;;;;;5060381;28;20170;-61
2022/06/05 00:56:17;;;;;;;29.93;16.13;;;;;;;;;;5048303;28;20564;-61
2022/06/05 00:58:43;;;;;;;26.40;15.57;;;;;;;;;;5049579;28;20045;-60
2022/06/05 01:01:09;;;;;;;22.37;14.23;;;;;;;;;;5055350;28;20040;-61
2022/06/05 01:03:36;;;;;;;23.43;14.97;;;;;;;;;;5067984;28;20040;-61
2022/06/05 01:06:02;;;;;;;26.20;14.77;;;;;;;;;;5068492;28;20075;-62
2022/06/05 01:08:28;;;;;;;31.80;16.13;;;;;;;;;;5049729;28;20128;-61
2022/06/05 01:11:08;;;;;;;23.63;15.77;;;;;;;;;;5048870;28;20045;-61
2022/06/05 01:13:37;;;;;;;25.97;14.77;;;;;;;;;;5048638;28;20178;-61
2022/06/05 01:16:18;;;;;;;33.77;16.17;;;;;;;;;;5048013;28;20495;-61
2022/06/05 01:18:50;;;;;;;31.07;16.00;;;;;;;;;;5049341;28;20395;-61
2022/06/05 01:21:27;;;;;;;28.93;16.87;;;;;;;;;;5050968;28;20072;-62
2022/06/05 01:24:04;;;;;;;26.97;16.27;;;;;;;;;;5049438;28;20128;-61
2022/06/05 01:26:33;;;;;;;29.87;16.23;;;;;;;;;;5049435;28;20094;-61
2022/06/05 01:29:04;;;;;;;27.70;15.60;;;;;;;;;;5049491;28;20060;-61
2022/06/05 01:31:32;;;;;;;31.50;17.00;;;;;;;;;;5049530;28;20037;-61
2022/06/05 01:34:22;;;;;;;28.93;17.90;;;;;;;;;;5049573;28;20072;-61
2022/06/05 01:36:55;;;;;;;24.53;15.63;;;;;;;;;;5043760;28;20572;-61
2022/06/05 01:39:21;;;;;;;;;;;;;;;;;;5050003;28;20047;-61
2022/06/05 01:41:48;;;;;;;30.23;16.13;;;;;;;;;;5048833;28;19921;-61
2022/06/05 01:44:16;;;;;;;30.87;16.40;;;;;;;;;;5049794;28;20056;-61
2022/06/05 01:46:43;;;;;;;33.03;16.73;;;;;;;;;;5053004;28;20063;-61
2022/06/05 01:49:18;;;;;;;33.17;17.10;;;;;;;;;;5053324;28;20132;-61
2022/06/05 01:51:50;;;;;;;28.27;16.13;;;;;;;;;;5055034;28;20079;-60
2022/06/05 01:54:19;;;;;;;34.70;18.57;;;;;;;;;;5072893;28;20094;-61
2022/06/05 01:56:50;;;;;;;37.23;18.10;;;;;;;;;;5072744;28;20139;-61
2022/06/05 01:59:24;;;;;;;32.47;17.10;;;;;;;;;;5071371;28;20090;-61
2022/06/05 02:01:53;;;;;;;31.23;16.50;;;;;;;;;;5073115;28;20103;-61
2022/06/05 02:04:39;;;;;;;33.67;18.27;;;;;;;;;;5073027;28;20048;-61
2022/06/05 02:07:25;;;;;;;32.87;17.37;;;;;;;;;;5069286;28;20083;-61
2022/06/05 02:09:54;;;;;;;32.77;17.53;;;;;;;;;;5071950;28;20090;-61
2022/06/05 02:12:21;;;;;;;33.53;18.57;;;;;;;;;;5072287;28;20036;-61
2022/06/05 02:14:47;;;;;;;33.17;17.77;;;;;;;;;;5071364;28;20101;-61
2022/06/05 02:17:13;;;;;;;38.37;18.03;;;;;;;;;;5069456;28;20064;-61
2022/06/05 02:19:39;;;;;;;37.20;18.63;;;;;;;;;;5052270;28;20049;-61
2022/06/05 02:22:10;;;;;;;36.20;18.57;;;;;;;;;;5051806;28;20099;-61
2022/06/05 02:24:36;;;;;;;32.57;18.00;;;;;;;;;;5052251;28;20037;-61
2022/06/05 02:27:04;;;;;;;36.63;18.03;;;;;;;;;;5052216;28;20037;-61
2022/06/05 02:29:30;;;;;;;32.40;16.23;;;;;;;;;;5052500;28;20037;-61
2022/06/05 02:32:05;;;;;;;34.90;19.23;;;;;;;;;;5051688;28;20045;-61
2022/06/05 02:34:45;;;;;;;31.67;18.00;;;;;;;;;;5052093;28;20059;-61
2022/06/05 02:37:32;;;;;;;45.73;21.00;;;;;;;;;;5052346;28;20527;-61
2022/06/05 02:40:18;;;;;;;39.33;19.07;;;;;;;;;;5054643;28;20053;-61
2022/06/05 02:42:44;;;;;;;40.53;18.57;;;;;;;;;;5061466;28;20053;-61
2022/06/05 02:45:19;;;;;;;39.83;19.80;;;;;;;;;;5052129;28;20404;-61
2022/06/05 02:47:56;;;;;;;34.87;18.20;;;;;;;;;;5066459;28;20052;-61
2022/06/05 02:50:22;;;;;;;35.47;18.37;;;;;;;;;;5066824;28;20041;-61
2022/06/05 02:52:49;;;;;;;40.47;19.07;;;;;;;;;;5050721;28;20060;-61
2022/06/05 02:55:17;;;;;;;38.53;18.67;;;;;;;;;;5051974;28;20039;-61
2022/06/05 02:57:44;;;;;;;34.47;17.57;;;;;;;;;;5051051;28;20053;-61
2022/06/05 03:00:13;;;;;;;39.50;18.60;;;;;;;;;;5051594;28;20526;-61
2022/06/05 03:05:24;;;;;;;37.73;18.40;;;;;;;;;;5055038;28;20048;-61
2022/06/05 03:07:50;;;;;;;37.23;19.03;;;;;;;;;;5062009;28;20044;-61
2022/06/05 03:10:16;;;;;;;40.20;18.97;;;;;;;;;;5070909;28;20048;-61
2022/06/05 03:12:42;;;;;;;39.07;19.00;;;;;;;;;;5067080;28;20119;-61
2022/06/05 03:15:09;;;;;;;42.77;20.37;;;;;;;;;;5070949;28;20044;-61
2022/06/05 03:17:36;;;;;;;36.87;18.97;;;;;;;;;;5058884;28;20127;-61
2022/06/05 03:20:03;;;;;;;35.63;18.93;;;;;;;;;;5061001;28;20041;-61
2022/06/05 03:22:29;;;;;;;38.33;18.97;;;;;;;;;;5059718;28;20041;-61
2022/06/05 03:24:55;;;;;;;33.50;17.60;;;;;;;;;;5061377;28;20047;-61
2022/06/05 03:27:22;;;;;;;37.77;20.07;;;;;;;;;;5057801;28;20558;-61
2022/06/05 03:29:48;;;;;;;34.23;19.33;;;;;;;;;;5064754;28;20048;-61
2022/06/05 03:32:14;;;;;;;44.27;21.63;;;;;;;;;;5051121;28;20197;-61
2022/06/05 03:34:40;;;;;;;42.17;18.77;;;;;;;;;;5050821;28;20041;-61
2022/06/05 03:37:06;;;;;;;36.17;18.87;;;;;;;;;;5051073;28;20089;-61
2022/06/05 03:39:33;;;;;;;39.63;19.17;;;;;;;;;;5058245;28;20094;-61
2022/06/05 03:41:59;;;;;;;36.80;18.97;;;;;;;;;;5042654;28;20498;-61
2022/06/05 03:44:26;;;;;;;46.67;19.97;;;;;;;;;;5059879;28;20790;-61
2022/06/05 03:46:52;;;;;;;33.90;19.10;;;;;;;;;;5059219;28;20037;-61
2022/06/05 03:49:18;;;;;;;39.50;19.87;;;;;;;;;;5055821;28;20049;-61
2022/06/05 03:51:47;;;;;;;40.87;20.17;;;;;;;;;;5060677;28;20037;-61
2022/06/05 03:54:14;;;;;;;35.83;19.53;;;;;;;;;;5058355;28;20057;-61
2022/06/05 03:56:40;;;;;;;34.90;19.33;;;;;;;;;;5058120;28;20044;-61
2022/06/05 03:59:06;;;;;;;31.63;17.10;;;;;;;;;;5059902;28;20136;-61
2022/06/05 04:01:32;;;;;;;36.17;19.23;;;;;;;;;;5057543;28;20098;-61
2022/06/05 04:03:58;;;;;;;34.03;18.37;;;;;;;;;;5054227;28;20131;-61
2022/06/05 04:06:27;;;;;;;36.70;18.83;;;;;;;;;;5064857;28;20045;-61
2022/06/05 04:08:54;;;;;;;32.30;17.37;;;;;;;;;;5068760;28;20052;-61
2022/06/05 04:11:20;;;;;;;32.60;17.23;;;;;;;;;;5066744;28;20032;-61
2022/06/05 04:13:46;;;;;;;28.77;17.73;;;;;;;;;;5058551;28;20049;-61
2022/06/05 04:16:13;;;;;;;30.07;18.17;;;;;;;;;;5056176;28;20048;-61
2022/06/05 04:18:40;;;;;;;30.63;17.40;;;;;;;;;;5058044;28;20403;-61
2022/06/05 04:21:10;;;;;;;32.53;17.60;;;;;;;;;;5056798;28;20048;-61
2022/06/05 04:23:36;;;;;;;28.53;18.10;;;;;;;;;;5059300;28;20045;-61
2022/06/05 04:26:05;;;;;;;24.53;17.50;;;;;;;;;;5057770;28;20033;-62
2022/06/05 04:28:32;;;;;;;29.73;17.83;;;;;;;;;;5063712;28;20051;-61
2022/06/05 04:30:58;;;;;;;25.83;16.27;;;;;;;;;;5059970;28;20446;-61
2022/06/05 04:33:24;;;;;;;25.73;16.60;;;;;;;;;;5050035;28;20044;-61
2022/06/05 04:35:50;;;;;;;27.83;16.47;;;;;;;;;;5048124;28;20106;-61
2022/06/05 04:38:16;;;;;;;25.20;15.43;;;;;;;;;;5049447;28;20044;-61
2022/06/05 04:40:42;;;;;;;25.80;16.57;;;;;;;;;;5061186;28;20052;-61
2022/06/05 04:43:08;;;;;;;31.73;16.77;;;;;;;;;;5067512;28;20131;-61
2022/06/05 04:45:35;;;;;;;23.67;14.87;;;;;;;;;;5056830;28;20537;-61
2022/06/05 04:48:01;;;;;;;23.80;16.40;;;;;;;;;;5049775;28;20411;-61
2022/06/05 04:50:27;;;;;;;25.27;15.83;;;;;;;;;;5049677;28;21028;-61
2022/06/05 04:52:53;;;;;;;25.60;15.63;;;;;;;;;;5049466;28;20052;-61
2022/06/05 04:55:20;;;;;;;22.90;15.70;;;;;;;;;;5059142;28;20448;-62
2022/06/05 04:57:46;;;;;;;25.43;15.37;;;;;;;;;;5058430;28;20536;-61
2022/06/05 05:00:12;;;;;;;21.90;14.93;;;;;;;;;;5065423;28;20048;-61
2022/06/05 05:02:39;;;;;;;26.73;15.90;;;;;;;;;;5061709;28;20044;-61
2022/06/05 05:05:05;;;;;;;21.67;14.80;;;;;;;;;;5056474;28;20037;-61
2022/06/05 05:07:31;;;;;;;24.47;14.20;;;;;;;;;;5066225;28;20045;-62
2022/06/05 05:09:57;;;;;;;22.07;15.60;;;;;;;;;;5068032;28;20045;-61
2022/06/05 05:12:23;;;;;;;23.10;14.17;;;;;;;;;;5068374;28;20036;-61
2022/06/05 05:14:49;;;;;;;18.57;14.03;;;;;;;;;;5068475;28;20046;-62
2022/06/05 05:17:16;;;;;;;22.00;13.77;;;;;;;;;;5067034;28;20127;-62
2022/06/05 05:19:42;;;;;;;20.13;13.20;;;;;;;;;;5069414;28;20040;-62
2022/06/05 05:22:08;;;;;;;22.33;15.03;;;;;;;;;;5064752;28;20072;-62
2022/06/05 05:24:34;;;;;;;17.67;12.77;;;;;;;;;;5072550;28;20409;-61
2022/06/05 05:27:00;;;;;;;18.33;14.27;;;;;;;;;;5071401;28;20049;-62
2022/06/05 05:29:26;;;;;;;17.70;12.93;;;;;;;;;;5068941;28;20048;-61
2022/06/05 05:31:52;;;;;;;16.03;13.23;;;;;;;;;;5071756;28;20037;-61
2022/06/05 05:34:18;;;;;;;16.70;12.53;;;;;;;;;;5066890;28;20387;-62
2022/06/05 05:36:44;;;;;;;21.90;12.47;;;;;;;;;;5052424;28;20052;-62
2022/06/05 05:42:04;;;;;;;20.67;11.70;;;;;;;;;;5052207;28;20092;-63
2022/06/05 05:44:35;;;;;;;21.33;12.37;;;;;;;;;;5059064;28;20414;-62
2022/06/05 05:47:01;;;;;;;18.80;12.83;;;;;;;;;;5052172;28;20124;-63
2022/06/05 05:49:27;;;;;;;17.70;13.43;;;;;;;;;;5052099;28;20269;-62
2022/06/05 05:51:53;;;;;;;17.77;12.60;;;;;;;;;;5052165;28;20064;-62
2022/06/05 05:54:19;;;;;;;15.27;12.17;;;;;;;;;;5050857;28;20056;-62
2022/06/05 05:56:45;;;;;;;18.97;12.23;;;;;;;;;;5052105;28;20498;-62
2022/06/05 05:59:11;;;;;;;13.97;11.60;;;;;;;;;;5051837;28;20056;-62
2022/06/05 06:01:37;;;;;;;16.37;12.40;;;;;;;;;;5051608;28;20052;-62
2022/06/05 06:04:04;;;;;;;17.60;11.83;;;;;;;;;;5055384;28;20045;-61
2022/06/05 06:06:32;;;;;;;14.40;11.10;;;;;;;;;;5056905;28;20069;-62
2022/06/05 06:08:58;;;;;;;14.47;11.33;;;;;;;;;;5059583;28;20044;-62
2022/06/05 06:11:24;;;;;;;16.53;11.20;;;;;;;;;;5060227;28;20128;-61
2022/06/05 06:13:50;;;;;;;13.57;10.80;;;;;;;;;;5053432;28;20077;-62
2022/06/05 06:16:17;;;;;;;13.90;11.20;;;;;;;;;;5052074;28;20053;-62
2022/06/05 06:18:43;;;;;;;14.00;11.10;;;;;;;;;;5052067;28;20115;-62
2022/06/05 06:21:09;;;;;;;14.20;10.03;;;;;;;;;;5044312;28;20055;-61
2022/06/05 06:23:35;;;;;;;16.47;10.97;;;;;;;;;;5061018;28;20040;-62
2022/06/05 06:26:05;;;;;;;15.50;9.90;;;;;;;;;;5055736;28;20071;-62
2022/06/05 06:28:31;;;;;;;12.93;10.57;;;;;;;;;;5051870;28;20048;-62
2022/06/05 06:30:57;;;;;;;15.33;10.37;;;;;;;;;;5058082;28;20053;-62
2022/06/05 06:33:23;;;;;;;15.40;10.77;;;;;;;;;;5060468;28;20052;-62
2022/06/05 06:35:49;;;;;;;14.83;9.83;;;;;;;;;;5065292;28;20453;-62
2022/06/05 06:38:15;;;;;;;14.53;9.70;;;;;;;;;;5062890;28;20046;-61
2022/06/05 06:40:41;;;;;;;14.87;10.00;;;;;;;;;;5069597;28;20135;-61
2022/06/05 06:43:07;;;;;;;11.17;8.33;;;;;;;;;;5053754;28;20073;-62
2022/06/05 06:45:33;;;;;;;12.10;9.37;;;;;;;;;;5070214;28;20185;-62
2022/06/05 06:47:59;;;;;;;11.30;8.37;;;;;;;;;;5066684;28;20188;-61
2022/06/05 06:50:26;;;;;;;9.77;8.67;;;;;;;;;;5062637;28;20128;-62
2022/06/05 06:52:52;;;;;;;12.83;9.20;;;;;;;;;;5070509;28;20049;-62
2022/06/05 06:55:18;;;;;;;11.30;8.47;;;;;;;;;;5060631;28;20037;-62
2022/06/05 06:57:45;;;;;;;9.93;8.20;;;;;;;;;;5050889;28;20069;-61
2022/06/05 07:00:16;;;;;;;12.80;8.17;;;;;;;;;;5054454;28;20053;-61
2022/06/05 07:02:42;;;;;;;13.00;8.63;;;;;;;;;;5050593;28;20479;-61
2022/06/05 07:05:08;;;;;;;11.53;7.93;;;;;;;;;;5064803;28;20048;-61
2022/06/05 07:07:34;;;;;;;13.23;9.00;;;;;;;;;;5060919;28;20043;-61
2022/06/05 07:10:00;;;;;;;10.00;8.40;;;;;;;;;;5065788;28;20482;-62
2022/06/05 07:12:26;;;;;;;10.80;7.90;;;;;;;;;;5062158;28;20450;-62
2022/06/05 07:14:52;;;;;;;13.10;8.27;;;;;;;;;;5050749;28;20041;-61
2022/06/05 07:17:18;;;;;;;10.93;8.13;;;;;;;;;;5050987;28;20090;-62
2022/06/05 07:19:44;;;;;;;10.87;8.03;;;;;;;;;;5060136;28;20422;-62
2022/06/05 07:22:10;;;;;;;9.37;7.67;;;;;;;;;;5061934;28;20036;-61
2022/06/05 07:24:36;;;;;;;9.30;6.90;;;;;;;;;;5059582;28;20051;-62
2022/06/05 07:27:03;;;;;;;11.43;7.27;;;;;;;;;;5062870;28;20044;-62
2022/06/05 07:29:29;;;;;;;9.20;7.33;;;;;;;;;;5052845;28;20128;-61
2022/06/05 07:31:55;;;;;;;9.40;7.03;;;;;;;;;;5053390;28;20124;-62
2022/06/05 07:34:21;;;;;;;10.97;6.87;;;;;;;;;;5069825;28;20463;-62
2022/06/05 07:36:47;;;;;;;8.47;5.90;;;;;;;;;;5069464;28;20063;-62
2022/06/05 07:39:13;;;;;;;9.27;7.00;;;;;;;;;;5055026;28;20494;-61
2022/06/05 07:41:39;;;;;;;7.63;6.57;;;;;;;;;;5050997;28;20089;-61
2022/06/05 07:44:06;;;;;;;7.83;6.53;;;;;;;;;;5058150;28;20091;-61
2022/06/05 07:46:33;;;;;;;10.97;7.23;;;;;;;;;;5065024;28;20045;-62
2022/06/05 07:48:59;;;;;;;8.30;6.00;;;;;;;;;;5050636;28;20098;-61
2022/06/05 07:54:30;;;;;;;9.07;6.07;;;;;;;;;;5048775;28;20063;-62
2022/06/05 07:57:19;;;;;;;8.37;5.90;;;;;;;;;;5066222;28;20055;-61
2022/06/05 07:59:46;;;;;;;11.33;7.40;;;;;;;;;;5049594;28;20197;-61
2022/06/05 08:02:18;;;;;;;9.13;7.10;;;;;;;;;;5061680;28;20051;-61
2022/06/05 08:04:44;;;;;;;6.70;5.70;;;;;;;;;;5069868;28;20044;-61
2022/06/05 08:07:11;;;;;;;10.00;5.97;;;;;;;;;;5058513;28;20041;-62
2022/06/05 08:09:38;;;;;;;9.53;6.00;;;;;;;;;;5055063;28;20040;-62
2022/06/05 08:12:06;;;;;;;8.40;6.83;;;;;;;;;;5061503;28;20040;-62
2022/06/05 08:14:34;;;;;;;7.17;5.30;;;;;;;;;;5050274;28;20037;-62
2022/06/05 08:17:01;;;;;;;8.83;5.40;;;;;;;;;;5063391;28;20127;-62
2022/06/05 08:19:27;;;;;;;6.00;4.73;;;;;;;;;;5059707;28;20044;-62
2022/06/05 08:21:53;;;;;;;7.60;5.50;;;;;;;;;;5069430;28;20048;-62
2022/06/05 08:24:20;;;;;;;9.17;5.70;;;;;;;;;;5044421;28;20045;-62
2022/06/05 08:26:46;;;;;;;8.33;5.23;;;;;;;;;;5051038;28;20068;-62
2022/06/05 08:29:12;;;;;;;5.20;4.60;;;;;;;;;;5051740;28;20041;-62
2022/06/05 08:31:39;;;;;;;7.57;5.37;;;;;;;;;;5049898;28;20044;-62
2022/06/05 08:34:05;;;;;;;7.43;4.97;;;;;;;;;;5053276;28;20053;-62
2022/06/05 08:36:32;;;;;;;6.50;5.17;;;;;;;;;;5059510;28;20045;-62
2022/06/05 08:42:02;;;;;;;7.70;4.67;;;;;;;;;;5062094;28;20164;-62
2022/06/05 08:44:40;;;;;;;7.20;4.63;;;;;;;;;;5063445;28;20095;-62
2022/06/05 08:47:20;;;;;;;7.80;5.00;;;;;;;;;;5049558;28;20522;-61
2022/06/05 08:50:09;;;;;;;7.20;4.90;;;;;;;;;;5060478;28;20048;-62
2022/06/05 08:52:35;;;;;;;7.63;5.13;;;;;;;;;;5060968;28;20048;-62
2022/06/05 08:55:12;;;;;;;4.90;4.18;;;;;;;;;;5051282;28;20422;-62
2022/06/05 08:57:43;;;;;;;11.20;4.68;;;;;;;;;;5049274;28;20127;-62
2022/06/05 09:00:26;;;;;;;7.93;5.32;;;;;;;;;;5049851;28;20490;-63
2022/06/05 09:03:07;;;;;;;8.40;4.50;;;;;;;;;;5058926;28;20432;-62
2022/06/05 09:05:38;;;;;;;5.70;4.47;;;;;;;;;;5061389;28;20410;-62
2022/06/05 09:08:08;;;;;;;5.25;3.97;;;;;;;;;;5061447;28;20040;-62
2022/06/05 09:10:37;;;;;;;6.18;4.78;;;;;;;;;;5049209;28;20040;-62
2022/06/05 09:13:15;;;;;;;6.55;4.80;;;;;;;;;;5056063;28;20044;-62
2022/06/05 09:15:47;;;;;;;4.80;4.13;;;;;;;;;;5054170;28;20588;-62
2022/06/05 09:18:17;;;;;;;5.03;4.00;;;;;;;;;;5056342;28;20147;-62
2022/06/05 09:20:43;;;;;;;8.18;3.90;;;;;;;;;;5052531;28;20040;-62
2022/06/05 09:23:14;;;;;;;6.57;3.95;;;;;;;;;;5063650;28;20516;-62
2022/06/05 09:25:57;;;;;;;7.18;4.20;;;;;;;;;;5052158;28;20041;-62
2022/06/05 09:28:26;;;;;;;7.97;5.30;;;;;;;;;;5038998;28;20037;-62
2022/06/05 09:31:07;;;;;;;5.32;4.28;;;;;;;;;;5061220;28;20053;-60
2022/06/05 09:33:35;;;;;;;8.75;4.70;;;;;;;;;;5066813;28;20055;-61
2022/06/05 09:36:08;;;;;;;7.75;4.95;;;;;;;;;;5067123;28;20040;-60
2022/06/05 09:38:37;;;;;;;7.47;4.47;;;;;;;;;;5049411;28;20041;-61
2022/06/05 09:41:06;;;;;;;5.65;4.93;;;;;;;;;;5048286;28;20057;-61
2022/06/05 09:43:51;;;;;;;7.55;4.25;;;;;;;;;;5048579;28;20124;-61
2022/06/05 09:46:26;;;;;;;8.10;4.28;;;;;;;;;;5055698;28;20045;-61
2022/06/05 09:49:02;;;;;;;5.70;3.78;;;;;;;;;;5059705;28;20037;-61
2022/06/05 09:51:28;;;;;;;5.95;4.13;;;;;;;;;;5059360;28;20045;-60
2022/06/05 09:53:56;;;;;;;6.60;4.47;;;;;;;;;;5055156;28;20053;-60
2022/06/05 09:56:27;;;;;;;6.97;4.50;;;;;;;;;;5056091;28;20045;-61
2022/06/05 09:59:17;;;;;;;7.45;4.97;;;;;;;;;;5048578;28;20140;-60
2022/06/05 10:01:55;;;;;;;6.50;4.40;;;;;;;;;;5056950;28;20047;-60
2022/06/05 10:04:21;;;;;;;5.30;4.07;;;;;;;;;;5058381;28;20053;-60
2022/06/05 10:06:51;;;;;;;7.38;4.85;;;;;;;;;;5054461;28;20048;-61
2022/06/05 10:09:22;;;;;;;5.80;4.15;;;;;;;;;;5071384;28;20053;-61
2022/06/05 10:11:48;;;;;;;6.22;4.75;;;;;;;;;;5072157;28;20048;-61
2022/06/05 10:14:33;;;;;;;6.55;4.30;;;;;;;;;;5072310;28;20047;-61
2022/06/05 10:17:08;;;;;;;6.63;4.82;;;;;;;;;;5069829;28;20494;-61
2022/06/05 10:19:34;;;;;;;8.02;4.72;;;;;;;;;;5060491;28;20048;-60
2022/06/05 10:22:14;;;;;;;6.85;5.10;;;;;;;;;;5057545;28;20560;-60
2022/06/05 10:24:58;;;;;;;6.75;4.43;;;;;;;;;;5061783;28;20557;-60
2022/06/05 10:27:25;;;;;;;5.78;4.00;;;;;;;;;;5057166;28;20531;-60
2022/06/05 10:29:54;;;;;;;6.40;4.18;;;;;;;;;;5066234;28;20106;-60
2022/06/05 10:32:23;;;;;;;5.50;4.15;;;;;;;;;;5071303;28;20068;-61
2022/06/05 10:35:05;;;;;;;6.70;4.28;;;;;;;;;;5063985;28;20510;-60
2022/06/05 10:37:43;;;;;;;6.40;4.53;;;;;;;;;;5071050;28;20056;-61
2022/06/05 10:40:13;;;;;;;4.88;4.38;;;;;;;;;;5071510;28;20056;-60
2022/06/05 10:42:52;;;;;;;6.03;4.78;;;;;;;;;;5054343;28;20052;-61
2022/06/05 10:45:23;;;;;;;8.30;4.78;;;;;;;;;;5067167;28;20045;-61
2022/06/05 10:47:53;;;;;;;8.20;4.70;;;;;;;;;;5050739;28;20047;-60
2022/06/05 10:50:38;;;;;;;6.18;4.00;;;;;;;;;;5055398;28;20063;-61
2022/06/05 10:53:24;;;;;;;6.30;4.30;;;;;;;;;;5051368;28;20041;-60
2022/06/05 10:55:56;;;;;;;5.65;4.78;;;;;;;;;;5043553;28;20121;-61
2022/06/05 10:58:41;;;;;;;7.32;4.80;;;;;;;;;;5070718;28;20466;-60
2022/06/05 11:01:12;;;;;;;7.15;5.13;;;;;;;;;;5071377;28;20080;-60
2022/06/05 11:03:46;;;;;;;8.40;4.97;;;;;;;;;;5065732;28;20053;-60
2022/06/05 11:06:31;;;;;;;7.95;4.20;;;;;;;;;;5066810;28;20052;-61
2022/06/05 11:09:15;;;;;;;5.85;4.45;;;;;;;;;;5065658;28;20033;-61
2022/06/05 11:14:46;;;;;;;6.38;4.32;;;;;;;;;;5056165;28;20131;-60
2022/06/05 11:17:42;;;;;;;6.85;4.57;;;;;;;;;;5050815;28;20052;-60
2022/06/05 11:20:08;;;;;;;8.73;4.20;;;;;;;;;;5051663;28;20485;-60
2022/06/05 11:22:35;;;;;;;4.65;4.05;;;;;;;;;;5063954;28;20044;-61
2022/06/05 11:25:10;;;;;;;6.75;4.38;;;;;;;;;;5061278;28;20534;-60
2022/06/05 11:27:51;;;;;;;4.72;4.00;;;;;;;;;;5057639;28;20048;-60
2022/06/05 11:30:17;;;;;;;5.00;4.00;;;;;;;;;;5051066;28;20041;-61
2022/06/05 11:32:47;;;;;;;6.55;4.25;;;;;;;;;;5063056;28;20052;-60
2022/06/05 11:35:19;;;;;;;6.25;4.88;;;;;;;;;;5069696;28;20052;-61
2022/06/05 11:37:54;;;;;;;7.37;4.33;;;;;;;;;;5067875;28;20882;-60
2022/06/05 11:40:20;;;;;;;6.72;4.75;;;;;;;;;;5049551;28;20307;-61
2022/06/05 11:42:46;;;;;;;5.63;4.60;;;;;;;;;;5065363;28;20062;-60
2022/06/05 11:45:15;;;;;;;5.80;4.82;;;;;;;;;;5052617;28;20411;-60
2022/06/05 11:47:46;;;;;;;7.78;4.88;;;;;;;;;;5049967;28;20099;-61
2022/06/05 11:50:12;;;;;;;8.10;4.95;;;;;;;;;;5059910;28;20044;-60
2022/06/05 11:52:56;;;;;;;6.20;4.90;;;;;;;;;;5066202;28;20051;-60
2022/06/05 11:55:58;;;;;;;6.95;4.65;;;;;;;;;;5069057;28;20426;-60
2022/06/05 11:58:24;;;;;;;6.32;4.05;;;;;;;;;;5047188;28;20044;-60
2022/06/05 12:00:54;;;;;;;5.45;4.28;;;;;;;;;;5061203;28;20041;-60
2022/06/05 12:03:25;;;;;;;6.40;4.10;;;;;;;;;;5049915;28;20079;-60
2022/06/05 12:05:54;;;;;;;5.60;4.90;;;;;;;;;;5049277;28;20119;-61
2022/06/05 12:08:25;;;;;;;7.57;4.60;;;;;;;;;;5054382;28;20087;-61
2022/06/05 12:11:09;;;;;;;6.18;4.28;;;;;;;;;;5049197;28;20041;-60
2022/06/05 12:13:41;;;;;;;5.43;4.30;;;;;;;;;;5060599;28;20521;-60
2022/06/05 12:16:09;;;;;;;5.50;4.05;;;;;;;;;;5056757;28;20056;-60
2022/06/05 12:18:45;;;;;;;7.55;4.72;;;;;;;;;;5048639;28;20440;-60
2022/06/05 12:21:17;;;;;;;6.47;4.50;;;;;;;;;;5048787;28;20043;-60
2022/06/05 12:24:00;;;;;;;10.60;5.45;;;;;;;;;;5051792;28;21802;-60
2022/06/05 12:26:42;;;;;;;5.25;3.95;;;;;;;;;;5048376;28;20045;-60
2022/06/05 12:29:14;;;;;;;5.05;3.95;;;;;;;;;;5049564;28;20149;-60
2022/06/05 12:32:01;;;;;;;7.10;4.25;;;;;;;;;;5056313;28;20132;-61
2022/06/05 12:34:29;;;;;;;5.75;4.30;;;;;;;;;;5054260;28;20049;-60
2022/06/05 12:37:09;;;;;;;4.97;3.75;;;;;;;;;;5054423;28;20052;-60
2022/06/05 12:39:37;;;;;;;8.15;4.30;;;;;;;;;;5056376;28;20044;-60
2022/06/05 12:42:09;;;;;;;4.55;3.97;;;;;;;;;;5052948;28;20049;-60
2022/06/05 12:44:41;;;;;;;6.53;4.03;;;;;;;;;;5054206;28;20356;-60
2022/06/05 12:47:10;;;;;;;6.47;4.18;;;;;;;;;;5066905;28;20080;-60
2022/06/05 12:49:41;;;;;;;4.05;3.65;;;;;;;;;;5069206;28;20040;-60
2022/06/05 12:52:26;;;;;;;4.43;3.78;;;;;;;;;;5067858;28;20147;-60
2022/06/05 12:54:55;;;;;;;7.47;4.00;;;;;;;;;;5068788;28;20445;-60
2022/06/05 12:57:28;;;;;;;5.07;3.67;;;;;;;;;;5051116;28;20041;-60
2022/06/05 12:59:59;;;;;;;4.53;3.78;;;;;;;;;;5049232;28;20119;-60
2022/06/05 13:02:39;;;;;;;4.75;3.88;;;;;;;;;;5049201;28;20049;-60
2022/06/05 13:05:05;;;;;;;8.60;5.30;;;;;;;;;;5049683;28;20045;-60
2022/06/05 13:07:31;;;;;;;5.53;4.40;;;;;;;;;;5049331;28;20044;-60
2022/06/05 13:10:00;;;;;;;4.85;4.20;;;;;;;;;;5049484;28;20133;-61
2022/06/05 13:12:32;;;;;;;6.35;4.03;;;;;;;;;;5049598;28;20095;-61
2022/06/05 13:15:01;;;;;;;7.72;4.25;;;;;;;;;;5048803;28;20418;-60
2022/06/05 13:17:45;;;;;;;4.82;3.75;;;;;;;;;;5049326;28;20493;-60
2022/06/05 13:20:20;;;;;;;6.15;3.95;;;;;;;;;;5049136;28;20049;-60
2022/06/05 13:22:54;;;;;;;4.65;3.72;;;;;;;;;;5064849;28;20041;-61
2022/06/05 13:25:39;;;;;;;5.60;3.63;;;;;;;;;;5069627;28;20514;-61
2022/06/05 13:28:14;;;;;;;5.75;3.80;;;;;;;;;;5067900;28;20056;-61
2022/06/05 13:30:46;;;;;;;5.03;3.40;;;;;;;;;;5068466;28;20051;-60
2022/06/05 13:33:17;;;;;;;9.07;4.68;;;;;;;;;;5069264;28;20174;-60
2022/06/05 13:35:50;;;;;;;4.50;3.85;;;;;;;;;;5069322;28;20047;-61
2022/06/05 13:38:20;;;;;;;5.70;3.63;;;;;;;;;;5069080;28;20083;-61
2022/06/05 13:40:59;;;;;;;5.63;3.75;;;;;;;;;;5070045;28;20135;-60
2022/06/05 13:43:27;;;;;;;6.63;4.35;;;;;;;;;;5072980;28;20499;-60
2022/06/05 13:46:16;;;;;;;7.10;4.07;;;;;;;;;;5073075;28;20052;-61
2022/06/05 13:48:48;;;;;;;6.60;4.25;;;;;;;;;;5073275;28;20032;-60
2022/06/05 13:51:18;;;;;;;5.43;4.43;;;;;;;;;;5072996;28;20054;-60
2022/06/05 13:53:45;;;;;;;4.97;3.60;;;;;;;;;;5072928;28;20098;-60
2022/06/05 13:56:15;;;;;;;6.13;4.20;;;;;;;;;;5072622;28;20095;-60
2022/06/05 13:58:43;;;;;;;5.15;3.95;;;;;;;;;;5060732;28;21317;-60
2022/06/05 14:01:09;;;;;;;6.53;4.15;;;;;;;;;;5052674;28;20048;-60
2022/06/05 14:03:39;;;;;;;6.35;4.28;;;;;;;;;;5051513;28;20045;-60
2022/06/05 14:06:25;;;;;;;4.57;3.83;;;;;;;;;;5052089;28;20057;-61
2022/06/05 14:08:54;;;;;;;5.20;4.18;;;;;;;;;;5052394;28;20128;-60
2022/06/05 14:11:22;;;;;;;6.93;4.57;;;;;;;;;;5052402;28;20106;-61
2022/06/05 14:13:52;;;;;;;4.97;3.67;;;;;;;;;;5066239;28;20053;-60
2022/06/05 14:16:19;;;;;;;4.70;3.70;;;;;;;;;;5072245;28;20044;-60
2022/06/05 14:18:47;;;;;;;5.65;3.92;;;;;;;;;;5071823;28;20086;-60
2022/06/05 14:21:19;;;;;;;5.70;3.70;;;;;;;;;;5072169;28;20419;-60
2022/06/05 14:23:46;;;;;;;4.47;3.97;;;;;;;;;;5072394;28;20056;-61
2022/06/05 14:26:13;;;;;;;6.32;4.07;;;;;;;;;;5072277;28;20125;-61
2022/06/05 14:28:40;;;;;;;8.00;5.22;;;;;;;;;;5071829;28;20131;-61
2022/06/05 14:31:14;;;;;;;8.70;4.00;;;;;;;;;;5071946;28;20135;-60
2022/06/05 14:33:42;;;;;;;5.35;3.42;;;;;;;;;;5054421;28;20104;-61
2022/06/05 14:36:08;;;;;;;5.57;3.97;;;;;;;;;;5072026;28;20123;-60
2022/06/05 14:38:38;;;;;;;5.32;4.35;;;;;;;;;;5072222;28;20049;-61
2022/06/05 14:41:08;;;;;;;6.90;4.32;;;;;;;;;;5071732;28;20064;-60
2022/06/05 14:43:52;;;;;;;5.70;4.22;;;;;;;;;;5060370;28;20056;-60
2022/06/05 14:46:24;;;;;;;5.60;4.32;;;;;;;;;;5071890;28;20057;-60
2022/06/05 14:48:55;;;;;;;7.73;4.60;;;;;;;;;;5071578;28;20048;-60
2022/06/05 14:51:31;;;;;;;5.57;4.80;;;;;;;;;;5071624;28;20287;-62
2022/06/05 14:54:09;;;;;;;6.57;4.28;;;;;;;;;;5070846;28;20114;-60
2022/06/05 14:59:28;;;;;;;7.15;5.45;;;;;;;;;;5051113;28;20048;-60
2022/06/05 15:02:03;;;;;;;7.03;4.50;;;;;;;;;;5051354;28;20438;-60
2022/06/05 15:04:39;;;;;;;10.02;6.18;;;;;;;;;;5051133;28;20051;-61
2022/06/05 15:07:11;;;;;;;7.68;5.30;;;;;;;;;;5049968;28;20048;-61